Time;durP1;ratioP1;P1;durP2;ratioP2;P2;SDS_P1;SDS_P2;PMS_P1;PMS_P2;Temp;Humidity;BMP_temperature;BMP_pressure;BME280_temperature;BME280_humidity;BME280_pressure;Samples;Min_cycle;Max_cycle;Signal;HPM_P1;HPM_P2
2022/09/08 00:01:16;;;;;;;11.80;2.73;;;;;;;20.24;81.96;100820.59;5269653;28;20028;-87
2022/09/08 00:03:47;;;;;;;7.88;2.90;;;;;;;20.26;77.95;100821.28;5270462;28;20029;-86
2022/09/08 00:06:19;;;;;;;8.97;3.03;;;;;;;19.93;83.65;100820.03;5270692;28;20057;-86
2022/09/08 00:08:51;;;;;;;8.77;2.87;;;;;;;20.15;80.52;100823.22;5269787;28;20028;-86
2022/09/08 00:11:28;;;;;;;9.47;3.00;;;;;;;20.22;82.27;100834.06;5270511;28;20040;-86
2022/09/08 00:14:07;;;;;;;8.10;2.80;;;;;;;19.97;79.95;100833.03;5268947;28;20484;-87
2022/09/08 00:16:40;;;;;;;12.73;3.97;;;;;;;19.50;82.23;100824.31;5269426;28;20115;-88
2022/09/08 00:19:11;;;;;;;10.63;3.17;;;;;;;19.53;83.62;100829.34;5270405;28;20021;-86
2022/09/08 00:21:43;;;;;;;8.77;3.23;;;;;;;19.74;90.94;100815.72;5269769;28;20175;-86
2022/09/08 00:24:14;;;;;;;14.13;4.27;;;;;;;19.68;100.00;100798.59;5268171;28;20025;-87
2022/09/08 00:26:45;;;;;;;8.77;3.30;;;;;;;19.77;100.00;100801.31;5270308;28;20566;-86
2022/09/08 00:29:17;;;;;;;11.57;3.23;;;;;;;19.67;100.00;100804.88;5268308;28;20030;-86
2022/09/08 00:31:48;;;;;;;11.50;3.30;;;;;;;19.44;100.00;100794.72;5268901;28;20025;-86
2022/09/08 00:34:19;;;;;;;10.60;2.53;;;;;;;19.07;100.00;100787.69;5268865;28;20028;-87
2022/09/08 00:36:56;;;;;;;12.27;3.53;;;;;;;19.09;100.00;100810.44;5269936;28;20661;-86
2022/09/08 00:39:28;;;;;;;11.70;3.50;;;;;;;18.82;100.00;100795.38;5270043;28;20017;-86
2022/09/08 00:41:59;;;;;;;7.03;2.50;;;;;;;18.94;100.00;100788.03;5269851;28;20151;-86
2022/09/08 00:44:49;;;;;;;11.27;2.90;;;;;;;19.05;100.00;100790.50;5267927;28;20470;-86
2022/09/08 00:47:34;;;;;;;9.20;2.90;;;;;;;19.24;100.00;100783.41;5269549;28;20093;-87
2022/09/08 00:50:35;;;;;;;8.47;3.27;;;;;;;19.31;100.00;100778.34;5269621;28;20020;-87
2022/09/08 00:53:11;;;;;;;8.60;3.53;;;;;;;19.29;100.00;100770.53;5259961;28;20043;-87
2022/09/08 00:55:42;;;;;;;8.90;2.90;;;;;;;18.88;100.00;100783.34;5269117;28;20029;-86
2022/09/08 00:58:14;;;;;;;9.77;3.07;;;;;;;18.81;100.00;100773.34;5268206;28;20103;-88
2022/09/08 01:00:45;;;;;;;8.53;2.60;;;;;;;18.97;100.00;100761.22;5269405;28;20024;-87
2022/09/08 01:03:17;;;;;;;9.70;3.40;;;;;;;19.20;100.00;100759.00;5268846;28;20046;-87
2022/09/08 01:05:58;;;;;;;10.33;2.97;;;;;;;19.27;100.00;100758.41;5270185;28;20111;-89
2022/09/08 01:14:51;;;;;;;10.83;3.40;;;;;;;19.21;100.00;100759.84;5266343;28;20450;-88
2022/09/08 01:17:28;;;;;;;9.10;2.88;;;;;;;19.03;100.00;100752.66;5267979;28;20415;-87
2022/09/08 01:20:02;;;;;;;8.83;3.07;;;;;;;18.91;100.00;100749.38;5269602;28;20027;-87
2022/09/08 01:23:10;;;;;;;13.70;5.88;;;;;;;19.04;100.00;100746.34;5269721;28;20059;-87
2022/09/08 01:26:00;;;;;;;9.13;2.90;;;;;;;18.88;100.00;100724.97;5268189;28;20033;-88
2022/09/08 01:28:48;;;;;;;6.03;2.90;;;;;;;18.91;100.00;100722.84;5269573;28;20493;-87
2022/09/08 01:31:22;;;;;;;9.77;2.90;;;;;;;18.71;100.00;100722.97;5266340;28;20024;-88
2022/09/08 01:33:53;;;;;;;6.10;2.60;;;;;;;18.55;100.00;100723.63;5270740;28;20028;-88
2022/09/08 01:36:25;;;;;;;8.90;2.73;;;;;;;18.42;100.00;100720.47;5273138;28;20047;-88
2022/09/08 01:38:56;;;;;;;8.37;3.00;;;;;;;18.32;100.00;100721.38;5273994;28;20021;-88
2022/09/08 01:41:27;;;;;;;7.30;2.53;;;;;;;18.22;100.00;100741.78;5271626;28;20032;-89
2022/09/08 01:43:59;;;;;;;5.77;2.47;;;;;;;18.21;100.00;100725.03;5272748;28;20025;-88
2022/09/08 01:46:30;;;;;;;61.10;9.93;;;;;;;18.33;100.00;100717.72;5271318;28;20069;-87
2022/09/08 01:49:02;;;;;;;10.03;3.53;;;;;;;18.61;100.00;100731.00;5271928;28;20032;-90
2022/09/08 01:51:33;;;;;;;6.83;3.00;;;;;;;18.69;100.00;100727.63;5272641;28;20033;-90
2022/09/08 01:54:05;;;;;;;7.73;3.27;;;;;;;18.53;100.00;100717.66;5273319;28;20032;-88
2022/09/08 01:56:36;;;;;;;8.03;3.83;;;;;;;18.37;100.00;100718.28;5273326;28;20039;-87
2022/09/08 01:59:07;;;;;;;7.97;3.17;;;;;;;18.47;100.00;100710.25;5273307;28;20473;-87
2022/09/08 02:01:39;;;;;;;6.47;3.37;;;;;;;18.42;100.00;100709.88;5272163;28;20521;-88
2022/09/08 02:04:10;;;;;;;5.73;2.37;;;;;;;18.46;100.00;100701.50;5274233;28;20029;-88
2022/09/08 02:06:42;;;;;;;8.37;2.87;;;;;;;18.45;100.00;100696.34;5270947;28;20028;-88
2022/09/08 02:09:13;;;;;;;8.17;2.27;;;;;;;18.22;100.00;100689.59;5273337;28;20514;-88
2022/09/08 02:11:48;;;;;;;8.63;2.80;;;;;;;18.26;100.00;100685.66;5273153;28;20091;-89
2022/09/08 02:14:19;;;;;;;7.67;2.80;;;;;;;18.30;100.00;100674.78;5272488;28;20032;-87
2022/09/08 02:16:50;;;;;;;11.97;4.10;;;;;;;18.14;100.00;100677.09;5276450;28;20036;-85
2022/09/08 02:19:22;;;;;;;10.33;2.63;;;;;;;18.25;100.00;100688.47;5292434;28;20029;-87
2022/09/08 02:21:53;;;;;;;7.03;2.63;;;;;;;18.46;100.00;100676.78;5292554;28;20036;-87
2022/09/08 02:24:24;;;;;;;10.47;3.07;;;;;;;18.44;100.00;100652.22;5288598;28;20039;-88
2022/09/08 02:26:55;;;;;;;7.03;2.53;;;;;;;18.61;100.00;100675.31;5297472;28;20020;-88
2022/09/08 02:29:27;;;;;;;9.03;3.27;;;;;;;18.48;100.00;100672.19;5302170;28;20012;-88
2022/09/08 02:31:58;;;;;;;4.27;2.07;;;;;;;18.49;100.00;100673.84;5301973;28;20036;-85
2022/09/08 02:34:29;;;;;;;6.57;1.97;;;;;;;18.56;100.00;100669.59;5290308;28;20092;-87
2022/09/08 02:37:01;;;;;;;6.53;2.33;;;;;;;18.44;100.00;100662.84;5284456;28;20047;-88
2022/09/08 02:39:32;;;;;;;7.37;2.50;;;;;;;18.57;100.00;100663.31;5278588;28;20365;-87
2022/09/08 02:42:03;;;;;;;6.27;2.40;;;;;;;18.58;100.00;100669.44;5274891;28;20047;-88
2022/09/08 02:44:35;;;;;;;6.27;2.43;;;;;;;18.54;100.00;100679.53;5273912;28;20028;-89
2022/09/08 02:47:06;;;;;;;5.23;2.60;;;;;;;18.53;100.00;100674.38;5274907;28;20073;-86
2022/09/08 02:49:37;;;;;;;11.57;4.17;;;;;;;18.33;100.00;100685.06;5273278;28;20180;-88
2022/09/08 02:52:11;;;;;;;7.90;2.87;;;;;;;18.42;100.00;100680.72;5273735;28;20479;-85
2022/09/08 02:54:43;;;;;;;5.93;2.50;;;;;;;18.48;100.00;100682.78;5272526;28;20028;-84
2022/09/08 02:57:14;;;;;;;8.00;2.43;;;;;;;18.33;100.00;100664.72;5274063;28;20027;-88
2022/09/08 02:59:45;;;;;;;8.73;2.63;;;;;;;18.28;100.00;100637.81;5269981;28;20562;-86
2022/09/08 03:02:17;;;;;;;5.30;2.03;;;;;;;18.44;100.00;100673.44;5272163;28;20026;-89
2022/09/08 03:04:49;;;;;;;8.30;2.70;;;;;;;18.44;100.00;100662.84;5271416;28;20039;-86
2022/09/08 03:07:21;;;;;;;10.97;3.40;;;;;;;18.14;100.00;100666.47;5272457;28;20020;-86
2022/09/08 03:09:52;;;;;;;11.67;3.43;;;;;;;18.36;100.00;100674.19;5272266;28;20059;-87
2022/09/08 03:12:26;;;;;;;6.43;2.23;;;;;;;18.28;100.00;100674.06;5271105;28;20037;-87
2022/09/08 03:14:57;;;;;;;;;;;;;;;18.62;100.00;100678.78;5271747;28;20024;-87
2022/09/08 03:17:29;;;;;;;6.57;2.67;;;;;;;18.19;100.00;100673.13;5273315;28;19942;-87
2022/09/08 03:20:00;;;;;;;8.00;2.60;;;;;;;18.28;100.00;100682.88;5273653;28;20064;-86
2022/09/08 03:22:31;;;;;;;7.00;2.97;;;;;;;18.21;100.00;100679.13;5270890;28;20033;-86
2022/09/08 03:25:04;;;;;;;6.63;2.80;;;;;;;18.04;100.00;100676.25;5271985;28;20059;-86
2022/09/08 03:27:36;;;;;;;7.03;2.53;;;;;;;18.22;100.00;100668.38;5271505;28;20040;-87
2022/09/08 03:30:09;;;;;;;6.73;2.50;;;;;;;18.22;100.00;100678.16;5269054;28;20028;-86
2022/09/08 03:32:41;;;;;;;5.65;2.92;;;;;;;18.08;100.00;100674.97;5270602;28;20054;-88
2022/09/08 03:35:17;;;;;;;7.23;2.77;;;;;;;18.18;100.00;100690.03;5271709;28;20032;-88
2022/09/08 03:37:48;;;;;;;6.73;2.70;;;;;;;18.13;100.00;100703.69;5271300;28;20091;-88
2022/09/08 03:40:19;;;;;;;6.17;2.87;;;;;;;18.05;100.00;100719.50;5272397;28;20028;-89
2022/09/08 03:42:50;;;;;;;5.30;2.70;;;;;;;17.96;100.00;100727.31;5271528;28;20107;-88
2022/09/08 03:45:22;;;;;;;13.17;3.33;;;;;;;17.74;100.00;100710.78;5269091;28;20029;-88
2022/09/08 03:47:53;;;;;;;18.07;4.30;;;;;;;17.73;100.00;100668.56;5271087;28;20021;-88
2022/09/08 03:50:25;;;;;;;14.73;3.60;;;;;;;17.75;100.00;100678.00;5272450;28;20039;-90
2022/09/08 03:52:56;;;;;;;12.60;3.47;;;;;;;17.78;100.00;100682.19;5274598;28;20162;-89
2022/09/08 03:55:28;;;;;;;8.07;3.13;;;;;;;17.70;100.00;100677.59;5274536;28;20088;-90
2022/09/08 03:57:59;;;;;;;10.83;3.20;;;;;;;17.68;100.00;100663.66;5275227;28;20028;-92
2022/09/08 04:00:31;;;;;;;8.20;2.80;;;;;;;17.66;100.00;100660.34;5270644;28;20079;-92
2022/09/08 04:03:03;;;;;;;7.63;3.27;;;;;;;17.63;100.00;100652.66;5258045;28;20770;-91
2022/09/08 04:05:34;;;;;;;8.20;3.00;;;;;;;17.68;100.00;100660.19;5257551;28;20139;-92
2022/09/08 04:08:06;;;;;;;8.13;3.10;;;;;;;17.50;100.00;100659.13;5268414;28;20110;-90
2022/09/08 04:10:41;;;;;;;6.33;2.70;;;;;;;17.42;100.00;100657.19;5272098;28;20078;-89
2022/09/08 04:13:12;;;;;;;8.93;2.90;;;;;;;17.61;100.00;100659.94;5272870;28;20072;-91
2022/09/08 04:15:43;;;;;;;7.67;2.87;;;;;;;17.49;100.00;100651.34;5272491;28;20507;-91
2022/09/08 04:18:15;;;;;;;8.40;2.60;;;;;;;17.46;100.00;100662.19;5274042;28;20479;-91
2022/09/08 04:20:56;;;;;;;7.53;2.70;;;;;;;17.53;100.00;100668.59;5271815;28;20473;-91
2022/09/08 04:23:28;;;;;;;4.63;2.40;;;;;;;17.40;100.00;100680.31;5268695;28;20067;-91
2022/09/08 04:26:02;;;;;;;6.17;2.83;;;;;;;17.40;100.00;100675.00;5256762;28;20507;-90
2022/09/08 04:28:34;;;;;;;11.18;2.92;;;;;;;17.30;100.00;100676.84;5258688;28;20289;-91
2022/09/08 04:31:12;;;;;;;11.37;4.27;;;;;;;17.46;100.00;100683.38;5271030;28;20246;-91
2022/09/08 04:33:43;;;;;;;6.60;2.63;;;;;;;17.36;100.00;100668.34;5268704;28;20020;-76
2022/09/08 04:36:20;;;;;;;5.90;2.90;;;;;;;17.26;100.00;100675.47;5270169;28;20067;-87
2022/09/08 04:38:53;;;;;;;7.93;3.10;;;;;;;17.29;100.00;100685.75;5270763;28;20478;-87
2022/09/08 04:41:27;;;;;;;7.37;2.57;;;;;;;17.34;100.00;100691.47;5274996;28;20024;-78
2022/09/08 04:44:03;;;;;;;11.20;3.80;;;;;;;17.40;100.00;100688.25;5270492;28;20020;-79
2022/09/08 04:46:35;;;;;;;8.50;3.17;;;;;;;17.20;100.00;100676.00;5268680;28;20050;-82
2022/09/08 04:49:07;;;;;;;5.77;3.10;;;;;;;17.38;100.00;100681.44;5270065;28;20029;-78
2022/09/08 04:51:39;;;;;;;7.47;3.10;;;;;;;17.37;100.00;100682.41;5269950;28;20078;-80
2022/09/08 04:54:10;;;;;;;8.00;3.13;;;;;;;17.49;100.00;100691.03;5269973;28;20042;-83
2022/09/08 04:56:42;;;;;;;7.87;3.27;;;;;;;17.31;100.00;100680.31;5268144;28;20139;-89
2022/09/08 04:59:13;;;;;;;6.50;3.07;;;;;;;17.17;100.00;100691.19;5257892;28;20091;-90
2022/09/08 05:01:44;;;;;;;8.20;3.50;;;;;;;17.31;100.00;100696.19;5261266;28;20021;-89
2022/09/08 05:04:16;;;;;;;6.97;3.40;;;;;;;17.13;100.00;100692.44;5270728;28;20047;-89
2022/09/08 05:06:47;;;;;;;9.93;3.90;;;;;;;17.29;100.00;100699.84;5253324;28;20017;-89
2022/09/08 05:09:18;;;;;;;5.10;2.73;;;;;;;17.17;100.00;100670.00;5258263;28;20119;-89
2022/09/08 05:11:49;;;;;;;7.73;3.60;;;;;;;17.41;100.00;100689.94;5263442;28;20048;-88
2022/09/08 05:14:21;;;;;;;10.73;3.50;;;;;;;17.45;100.00;100700.22;5270187;28;20020;-88
2022/09/08 05:16:52;;;;;;;8.60;3.47;;;;;;;17.41;100.00;100691.72;5272408;28;20040;-88
2022/09/08 05:19:23;;;;;;;11.80;3.90;;;;;;;17.49;100.00;100704.28;5270499;28;20037;-87
2022/09/08 05:21:55;;;;;;;8.30;3.70;;;;;;;17.42;100.00;100703.97;5270933;28;20407;-87
2022/09/08 05:24:26;;;;;;;7.17;3.60;;;;;;;17.28;100.00;100692.00;5269568;28;20035;-87
2022/09/08 05:26:57;;;;;;;10.13;3.53;;;;;;;17.40;100.00;100705.97;5270475;28;20040;-87
2022/09/08 05:29:29;;;;;;;13.60;4.50;;;;;;;17.27;100.00;100700.94;5270084;28;20036;-79
2022/09/08 05:32:00;;;;;;;10.07;3.40;;;;;;;17.37;100.00;100696.47;5257187;28;20040;-90
2022/09/08 05:34:31;;;;;;;15.13;4.80;;;;;;;17.28;100.00;100682.28;5260844;28;20036;-89
2022/09/08 05:37:02;;;;;;;12.33;4.47;;;;;;;17.20;100.00;100689.22;5264624;28;20405;-90
2022/09/08 05:39:34;;;;;;;11.23;4.30;;;;;;;17.25;100.00;100692.28;5264911;28;20165;-95
2022/09/08 05:42:05;;;;;;;8.57;4.33;;;;;;;17.18;100.00;100684.09;5266667;28;20108;-93
2022/09/08 05:44:37;;;;;;;17.30;4.67;;;;;;;17.27;100.00;100693.00;5255841;28;20025;-93
2022/09/08 05:47:08;;;;;;;11.50;4.57;;;;;;;17.31;100.00;100688.25;5256147;28;20079;-88
2022/09/08 05:49:40;;;;;;;10.53;4.57;;;;;;;17.25;100.00;100698.44;5253535;28;20502;-91
2022/09/08 05:52:11;;;;;;;14.13;4.33;;;;;;;17.21;100.00;100693.56;5254513;28;20107;-93
2022/09/08 05:54:42;;;;;;;10.07;5.17;;;;;;;17.22;100.00;100692.59;5249596;28;20032;-81
2022/09/08 05:57:13;;;;;;;13.17;5.07;;;;;;;16.87;100.00;100697.41;5248157;28;20037;-81
2022/09/08 05:59:45;;;;;;;11.13;5.63;;;;;;;17.24;100.00;100701.22;5251773;28;20031;-79
2022/09/08 06:02:16;;;;;;;9.20;4.83;;;;;;;17.14;100.00;100686.16;5253557;28;20179;-80
2022/09/08 06:04:47;;;;;;;8.30;5.10;;;;;;;17.22;100.00;100695.22;5253007;28;20032;-79
2022/09/08 06:07:18;;;;;;;12.07;5.10;;;;;;;17.19;100.00;100691.06;5247303;28;20032;-80
2022/09/08 06:09:50;;;;;;;9.37;4.93;;;;;;;17.24;100.00;100704.72;5257145;28;20040;-90
2022/09/08 06:12:21;;;;;;;7.60;5.10;;;;;;;17.15;100.00;100703.75;5263096;28;20119;-85
2022/09/08 06:14:53;;;;;;;8.80;5.47;;;;;;;17.16;100.00;100700.09;5247674;28;20029;-83
2022/09/08 06:17:24;;;;;;;8.30;4.93;;;;;;;17.13;100.00;100696.91;5253349;28;20108;-83
2022/09/08 06:19:55;;;;;;;7.93;5.13;;;;;;;17.10;100.00;100684.78;5251452;28;20032;-84
2022/09/08 06:22:31;;;;;;;8.77;4.50;;;;;;;17.17;100.00;100693.81;5261485;28;20028;-82
2022/09/08 06:25:02;;;;;;;11.00;5.90;;;;;;;17.08;100.00;100697.28;5248188;28;20028;-82
2022/09/08 06:27:52;;;;;;;10.10;5.70;;;;;;;17.14;100.00;100691.47;5268772;28;20387;-83
2022/09/08 06:30:23;;;;;;;9.13;5.47;;;;;;;17.05;100.00;100689.63;5268740;28;20058;-83
2022/09/08 06:32:59;;;;;;;8.00;5.20;;;;;;;17.20;100.00;100699.81;5270694;28;20032;-83
2022/09/08 06:35:41;;;;;;;11.80;5.57;;;;;;;17.15;100.00;100697.59;5268506;28;20093;-75
2022/09/08 06:38:19;;;;;;;9.70;5.53;;;;;;;17.04;100.00;100680.84;5270133;28;20037;-82
2022/09/08 06:41:03;;;;;;;13.53;5.83;;;;;;;17.15;100.00;100708.19;5273513;28;20032;-81
2022/09/08 06:43:51;;;;;;;8.57;5.67;;;;;;;17.19;100.00;100704.28;5267973;28;21815;-78
2022/09/08 06:46:26;;;;;;;10.50;5.77;;;;;;;17.19;100.00;100709.59;5271545;28;20032;-82
2022/09/08 06:48:59;;;;;;;12.30;5.87;;;;;;;17.07;100.00;100708.81;5268906;28;20036;-79
2022/09/08 06:51:38;;;;;;;13.27;6.10;;;;;;;17.20;100.00;100716.53;5269069;28;20025;-77
2022/09/08 06:54:10;;;;;;;12.33;6.57;;;;;;;17.11;100.00;100720.84;5263399;28;20032;-76
2022/09/08 06:57:03;;;;;;;12.47;6.70;;;;;;;17.14;100.00;100717.09;5269279;28;20036;-76
2022/09/08 06:59:49;;;;;;;16.77;6.60;;;;;;;17.09;100.00;100714.81;5264295;28;20146;-78
2022/09/08 07:02:48;;;;;;;12.97;6.83;;;;;;;17.23;100.00;100715.41;5268448;28;20558;-77
2022/09/08 07:05:37;;;;;;;11.57;6.90;;;;;;;17.15;100.00;100719.63;5265556;28;20146;-78
2022/09/08 07:08:27;;;;;;;9.67;5.90;;;;;;;17.28;100.00;100723.78;5267884;28;20035;-78
2022/09/08 07:11:31;;;;;;;10.93;6.40;;;;;;;17.28;100.00;100718.47;5268383;28;20056;-77
2022/09/08 07:14:35;;;;;;;12.50;6.10;;;;;;;17.34;100.00;100712.66;5262034;28;20036;-79
2022/09/08 07:17:25;;;;;;;11.02;6.68;;;;;;;17.35;100.00;100716.13;5266809;28;20555;-81
2022/09/08 07:19:57;;;;;;;11.73;5.90;;;;;;;17.17;100.00;100709.69;5268514;28;20043;-77
2022/09/08 07:22:28;;;;;;;11.00;6.60;;;;;;;17.21;100.00;100717.38;5268498;28;20475;-83
2022/09/08 07:25:17;;;;;;;14.00;7.87;;;;;;;17.27;100.00;100712.38;5268313;28;20024;-83
2022/09/08 07:28:01;;;;;;;10.97;6.17;;;;;;;17.16;100.00;100709.84;5267571;28;20031;-84
2022/09/08 07:30:36;;;;;;;9.27;6.53;;;;;;;17.04;100.00;100719.69;5267440;28;20032;-82
2022/09/08 07:33:26;;;;;;;;;;;;;;;17.44;100.00;100723.22;5268404;28;20024;-82
2022/09/08 07:36:10;;;;;;;15.67;7.77;;;;;;;17.43;100.00;100718.91;5269015;28;19912;-82
2022/09/08 07:38:47;;;;;;;11.33;7.37;;;;;;;17.71;100.00;100723.47;5266287;28;20032;-83
2022/09/08 07:41:29;;;;;;;10.70;7.03;;;;;;;17.97;100.00;100717.56;5267731;28;20048;-82
2022/09/08 07:44:05;;;;;;;11.83;7.57;;;;;;;18.16;100.00;100716.69;5265634;28;20086;-83
2022/09/08 07:47:13;;;;;;;9.73;6.87;;;;;;;18.48;100.00;100711.94;5266292;28;20548;-83
2022/09/08 07:49:51;;;;;;;10.07;6.57;;;;;;;18.93;100.00;100712.94;5266901;28;20075;-83
2022/09/08 07:52:37;;;;;;;10.67;6.03;;;;;;;18.65;100.00;100720.09;5268135;28;20085;-84
2022/09/08 07:55:51;;;;;;;8.93;6.10;;;;;;;19.42;100.00;100713.56;5268681;28;20043;-83
2022/09/08 07:58:39;;;;;;;13.67;5.93;;;;;;;20.53;100.00;100715.69;5252954;28;20025;-84
2022/09/08 08:01:31;;;;;;;8.80;5.55;;;;;;;20.40;100.00;100722.28;5245020;28;20450;-84
2022/09/08 08:04:47;;;;;;;7.85;4.90;;;;;;;20.47;100.00;100725.16;5265071;28;20048;-83
2022/09/08 08:08:08;;;;;;;6.73;4.63;;;;;;;19.95;100.00;100716.22;5265856;28;20388;-83
2022/09/08 08:11:07;;;;;;;5.72;4.05;;;;;;;20.01;100.00;100734.22;5270058;28;20076;-83
2022/09/08 08:13:53;;;;;;;8.93;4.97;;;;;;;20.27;100.00;100735.19;5264073;28;20020;-85
2022/09/08 08:16:53;;;;;;;8.63;4.80;;;;;;;19.90;100.00;100724.66;5266752;28;20047;-84
2022/09/08 08:19:47;;;;;;;5.73;4.77;;;;;;;19.55;100.00;100737.88;5267525;28;20398;-84
2022/09/08 08:22:38;;;;;;;6.50;4.47;;;;;;;20.65;100.00;100733.00;5268456;28;20027;-83
2022/09/08 08:25:26;;;;;;;6.63;3.35;;;;;;;21.20;100.00;100735.31;5265515;28;20025;-84
2022/09/08 08:28:09;;;;;;;5.15;2.83;;;;;;;22.86;99.50;100735.94;5268299;28;20032;-85
2022/09/08 08:30:45;;;;;;;6.35;2.83;;;;;;;23.79;89.97;100742.25;5267680;28;20603;-84
2022/09/08 08:33:22;;;;;;;6.35;3.15;;;;;;;23.54;82.06;100737.13;5264405;28;20684;-84
2022/09/08 08:36:05;;;;;;;3.83;2.40;;;;;;;22.99;83.05;100737.19;5269035;28;20020;-82
2022/09/08 08:38:42;;;;;;;4.20;2.30;;;;;;;22.46;83.85;100744.75;5261604;28;20497;-86
2022/09/08 08:41:22;;;;;;;5.85;1.90;;;;;;;22.39;81.02;100737.66;5266798;28;20029;-79
2022/09/08 08:44:09;;;;;;;5.80;2.05;;;;;;;23.24;81.40;100732.50;5262851;28;20057;-82
2022/09/08 08:47:07;;;;;;;6.97;2.15;;;;;;;23.21;80.07;100732.84;5267806;28;20040;-84
2022/09/08 08:49:56;;;;;;;5.35;2.15;;;;;;;22.65;81.67;100737.41;5264414;28;20035;-84
2022/09/08 08:52:47;;;;;;;4.28;2.15;;;;;;;22.26;85.03;100740.84;5266188;28;20033;-82
2022/09/08 08:55:58;;;;;;;5.70;2.72;;;;;;;22.14;85.01;100733.22;5263348;28;20109;-84
2022/09/08 08:58:51;;;;;;;4.75;2.20;;;;;;;21.98;87.27;100742.94;5253794;28;20414;-84
2022/09/08 09:01:45;;;;;;;6.63;3.05;;;;;;;22.99;82.51;100730.00;5266725;28;20016;-83
2022/09/08 09:04:25;;;;;;;5.07;2.17;;;;;;;23.34;79.13;100724.22;5263783;28;20051;-83
2022/09/08 09:07:24;;;;;;;5.90;2.20;;;;;;;23.54;80.82;100729.09;5266558;28;20035;-84
2022/09/08 09:10:27;;;;;;;3.45;1.70;;;;;;;23.24;75.57;100723.63;5298350;28;20029;-81
2022/09/08 09:13:25;;;;;;;5.43;1.60;;;;;;;22.87;78.66;100720.72;5269081;28;20060;-81
2022/09/08 09:16:20;;;;;;;9.52;1.95;;;;;;;22.39;79.86;100732.31;5267209;28;20630;-81
2022/09/08 09:18:59;;;;;;;6.60;1.85;;;;;;;22.02;80.04;100727.44;5267989;28;20039;-81
2022/09/08 09:22:08;;;;;;;5.13;1.90;;;;;;;22.36;80.88;100733.47;5265765;28;20708;-81
2022/09/08 09:25:03;;;;;;;6.43;1.98;;;;;;;22.26;79.96;100723.03;5263485;28;20032;-80
2022/09/08 09:27:44;;;;;;;5.15;1.50;;;;;;;22.77;79.06;100726.31;5262759;28;20046;-80
2022/09/08 09:30:39;;;;;;;5.97;1.52;;;;;;;23.43;76.92;100727.69;5265891;28;20060;-81
2022/09/08 09:33:46;;;;;;;6.47;2.08;;;;;;;24.11;77.02;100720.66;5267034;28;20028;-81
2022/09/08 09:36:38;;;;;;;5.00;1.73;;;;;;;24.76;70.71;100720.84;5266243;28;20032;-80
2022/09/08 09:39:21;;;;;;;5.55;1.58;;;;;;;25.38;65.50;100727.59;5262434;28;20017;-80
2022/09/08 09:42:20;;;;;;;4.70;1.63;;;;;;;26.43;63.70;100723.31;5266451;28;20041;-81
2022/09/08 09:45:22;;;;;;;4.10;1.30;;;;;;;26.96;55.03;100726.34;5262158;28;20349;-81
2022/09/08 09:48:11;;;;;;;7.38;1.98;;;;;;;28.12;49.65;100719.03;5268066;28;20048;-80
2022/09/08 09:51:08;;;;;;;7.18;1.52;;;;;;;28.11;47.17;100733.50;5266748;28;20056;-81
2022/09/08 09:53:53;;;;;;;7.28;1.85;;;;;;;28.79;43.02;100735.91;5262060;28;20111;-80
2022/09/08 09:56:45;;;;;;;5.97;1.50;;;;;;;28.36;46.62;100738.22;5274187;28;20029;-79
2022/09/08 09:59:37;;;;;;;5.63;1.23;;;;;;;27.97;45.79;100733.56;5267535;28;20057;-80
2022/09/08 10:02:30;;;;;;;5.03;1.38;;;;;;;27.64;48.30;100731.75;5268817;28;20040;-80
2022/09/08 10:05:23;;;;;;;6.90;1.83;;;;;;;26.76;47.25;100737.06;5262918;28;20028;-80
2022/09/08 10:08:07;;;;;;;6.20;1.88;;;;;;;26.36;47.96;100732.41;5269961;28;20060;-79
2022/09/08 10:10:50;;;;;;;5.95;1.45;;;;;;;25.93;50.02;100740.41;5270292;28;20384;-80
2022/09/08 10:13:49;;;;;;;4.38;1.23;;;;;;;26.86;49.53;100731.28;5264103;28;20044;-80
2022/09/08 10:16:58;;;;;;;4.45;1.45;;;;;;;27.40;47.67;100736.72;5269427;28;20072;-79
2022/09/08 10:20:11;;;;;;;8.48;2.13;;;;;;;27.87;47.53;100733.19;5271339;28;20112;-80
2022/09/08 10:22:51;;;;;;;6.65;1.80;;;;;;;27.01;47.16;100745.38;5268060;28;20428;-80
2022/09/08 10:26:05;;;;;;;4.70;1.40;;;;;;;27.13;45.82;100728.66;5266212;28;20111;-79
2022/09/08 10:28:58;;;;;;;7.03;1.98;;;;;;;26.13;45.82;100744.22;5266873;28;20031;-80
2022/09/08 10:32:10;;;;;;;8.38;2.10;;;;;;;26.09;46.72;100743.78;5268929;28;20028;-80
2022/09/08 10:34:57;;;;;;;5.40;1.63;;;;;;;25.49;48.47;100745.84;5261878;28;20442;-78
2022/09/08 10:37:37;;;;;;;6.32;1.60;;;;;;;25.41;48.27;100747.84;5270113;28;20029;-81
2022/09/08 10:40:36;;;;;;;7.95;2.47;;;;;;;25.48;48.99;100738.00;5267691;28;20032;-82
2022/09/08 10:43:39;;;;;;;5.82;2.08;;;;;;;25.19;49.92;100746.00;5266103;28;20779;-83
2022/09/08 10:46:35;;;;;;;6.43;1.90;;;;;;;25.01;49.84;100731.19;5267422;28;20115;-82
2022/09/08 10:49:18;;;;;;;6.78;1.73;;;;;;;24.55;51.13;100734.19;5265369;28;20028;-81
2022/09/08 10:52:00;;;;;;;9.57;2.60;;;;;;;24.97;51.37;100731.78;5269441;28;20553;-81
2022/09/08 10:55:06;;;;;;;5.57;2.03;;;;;;;24.73;52.00;100731.91;5265698;28;20429;-81
2022/09/08 10:58:09;;;;;;;11.00;1.52;;;;;;;24.78;52.13;100728.69;5269073;28;20024;-82
2022/09/08 11:00:54;;;;;;;10.30;2.92;;;;;;;24.46;62.93;100722.75;5265040;28;20051;-77
2022/09/08 11:03:50;;;;;;;9.27;1.70;;;;;;;24.54;63.63;100733.38;5264051;28;20040;-78
2022/09/08 11:06:42;;;;;;;5.55;1.88;;;;;;;24.24;61.18;100725.38;5265800;28;20107;-81
2022/09/08 11:09:35;;;;;;;9.50;2.30;;;;;;;24.29;60.56;100722.97;5267121;28;20126;-74
2022/09/08 11:12:42;;;;;;;7.70;2.10;;;;;;;23.98;60.56;100724.00;5264928;28;20070;-79
2022/09/08 11:15:51;;;;;;;7.60;1.83;;;;;;;23.90;60.96;100716.88;5263112;28;20195;-77
2022/09/08 11:18:40;;;;;;;6.35;2.10;;;;;;;24.01;64.16;100724.44;5272047;28;20024;-82
2022/09/08 11:21:30;;;;;;;5.72;2.20;;;;;;;23.86;63.31;100720.94;5268427;28;20040;-81
2022/09/08 11:24:18;;;;;;;9.10;1.98;;;;;;;23.62;59.38;100720.16;5263912;28;20044;-77
2022/09/08 11:27:24;;;;;;;6.88;1.73;;;;;;;23.89;59.49;100715.22;5266317;28;20217;-77
2022/09/08 11:30:11;;;;;;;5.97;1.60;;;;;;;23.60;60.52;100703.50;5267040;28;20031;-81
2022/09/08 11:33:02;;;;;;;7.00;1.75;;;;;;;23.25;57.94;100711.97;5264496;28;20032;-80
2022/09/08 11:35:53;;;;;;;5.63;1.88;;;;;;;23.61;58.26;100705.16;5265996;28;20147;-81
2022/09/08 11:38:51;;;;;;;5.55;2.00;;;;;;;23.59;57.42;100704.50;5267095;28;20115;-81
2022/09/08 11:42:01;;;;;;;7.07;1.85;;;;;;;23.47;58.56;100704.94;5267050;28;20107;-80
2022/09/08 11:44:46;;;;;;;8.43;1.92;;;;;;;23.37;57.23;100705.16;5265615;28;20028;-81
2022/09/08 11:47:39;;;;;;;5.28;1.52;;;;;;;23.38;56.67;100709.50;5264534;28;20106;-81
2022/09/08 11:50:32;;;;;;;5.93;2.38;;;;;;;23.56;57.25;100701.16;5265540;28;20027;-81
2022/09/08 11:53:32;;;;;;;7.55;2.28;;;;;;;23.60;54.81;100698.97;5266414;28;20503;-80
2022/09/08 11:56:17;;;;;;;8.63;2.50;;;;;;;23.71;56.17;100691.50;5266665;28;20728;-80
2022/09/08 11:59:20;;;;;;;5.70;2.00;;;;;;;23.97;55.08;100695.56;5263549;28;20028;-77
2022/09/08 12:02:07;;;;;;;6.13;1.90;;;;;;;23.92;53.10;100688.09;5266651;28;20376;-80
2022/09/08 12:04:59;;;;;;;3.78;1.27;;;;;;;24.15;53.50;100688.00;5265598;28;20029;-85
2022/09/08 12:08:08;;;;;;;9.80;2.30;;;;;;;24.16;53.44;100684.31;5276811;28;20088;-80
2022/09/08 12:11:10;;;;;;;9.30;2.00;;;;;;;24.27;54.48;100679.53;5269942;28;20143;-86
2022/09/08 12:13:54;;;;;;;4.70;1.48;;;;;;;24.33;50.70;100672.59;5265258;28;20064;-83
2022/09/08 12:16:45;;;;;;;4.13;1.40;;;;;;;24.49;51.19;100660.84;5267026;28;20031;-81
2022/09/08 12:19:42;;;;;;;5.80;1.67;;;;;;;24.09;50.93;100670.00;5266599;28;20020;-79
2022/09/08 12:22:35;;;;;;;3.92;1.48;;;;;;;24.29;50.68;100650.75;5266914;28;20042;-80
2022/09/08 12:25:22;;;;;;;5.07;1.67;;;;;;;24.22;51.61;100647.16;5264541;28;20032;-82
2022/09/08 12:28:23;;;;;;;4.78;1.30;;;;;;;24.41;50.41;100665.28;5266303;28;20502;-82
2022/09/08 12:31:00;;;;;;;3.35;1.58;;;;;;;24.21;49.42;100680.28;5274856;28;20051;-81